createdAt,value
2022-11-17T00:05:04.215Z,6.01
2022-11-17T00:15:25.736Z,6.03
2022-11-17T00:25:47.179Z,6.01
2022-11-17T00:36:08.779Z,6.04
2022-11-17T00:46:30.507Z,6.04
2022-11-17T00:56:52.004Z,6.00
2022-11-17T01:07:13.588Z,5.97
2022-11-17T01:17:35.151Z,5.98
2022-11-17T01:27:56.629Z,5.98
2022-11-17T01:38:18.087Z,5.93
2022-11-17T01:48:43.434Z,5.87
2022-11-17T01:59:14.275Z,5.83
2022-11-17T02:09:38.910Z,5.79
2022-11-17T02:20:13.242Z,5.75
2022-11-17T02:30:49.119Z,5.75
2022-11-17T02:41:22.963Z,5.70
2022-11-17T02:51:48.162Z,5.62
2022-11-17T03:02:36.237Z,5.62
2022-11-17T03:13:10.808Z,5.61
2022-11-17T03:23:44.890Z,5.62
2022-11-17T03:34:11.796Z,5.60
2022-11-17T03:44:36.817Z,5.64
2022-11-17T03:54:58.831Z,5.64
2022-11-17T04:05:20.239Z,5.62
2022-11-17T04:15:56.828Z,5.59
2022-11-17T04:26:36.826Z,5.59
2022-11-17T04:36:58.360Z,5.61
2022-11-17T04:47:19.827Z,5.64
2022-11-17T04:57:41.281Z,5.63
2022-11-17T05:08:05.325Z,5.58
2022-11-17T05:18:26.768Z,5.56
2022-11-17T05:28:48.345Z,5.51
2022-11-17T05:39:10.319Z,5.43
2022-11-17T05:49:31.661Z,5.31
2022-11-17T05:59:59.588Z,5.27
2022-11-17T06:10:21.159Z,5.24
2022-11-17T06:20:48.405Z,5.20
2022-11-17T06:31:10.211Z,5.18
2022-11-17T06:41:31.691Z,5.00
2022-11-17T06:51:55.910Z,4.92
2022-11-17T07:02:17.385Z,4.84
2022-11-17T07:12:38.995Z,4.78
2022-11-17T07:23:00.468Z,4.72
2022-11-17T07:33:22.788Z,4.66
2022-11-17T07:43:44.230Z,4.62
2022-11-17T07:54:05.830Z,4.56
2022-11-17T08:04:27.302Z,4.49
2022-11-17T08:14:48.957Z,4.46
2022-11-17T08:25:10.499Z,4.40
2022-11-17T08:35:37.483Z,4.35
2022-11-17T08:45:59.327Z,4.29
2022-11-17T08:56:21.155Z,4.23
2022-11-17T09:06:42.678Z,4.21
2022-11-17T09:17:04.155Z,4.24
2022-11-17T09:27:25.705Z,4.24
2022-11-17T09:37:47.215Z,4.25
2022-11-17T09:48:43.571Z,4.22
2022-11-17T09:59:06.032Z,4.24
2022-11-17T10:09:42.266Z,4.26
2022-11-17T10:20:17.289Z,4.28
2022-11-17T10:30:38.833Z,4.27
2022-11-17T10:41:03.137Z,4.29
2022-11-17T10:51:26.626Z,4.35
2022-11-17T11:01:51.010Z,4.36
2022-11-17T11:12:18.970Z,4.38
2022-11-17T11:22:52.610Z,4.33
2022-11-17T11:33:35.090Z,4.34
2022-11-17T11:44:24.521Z,4.38
2022-11-17T11:55:03.747Z,4.41
2022-11-17T12:05:37.440Z,4.46
2022-11-17T12:16:19.276Z,4.48
2022-11-17T12:26:40.640Z,4.53
2022-11-17T12:37:16.472Z,4.54
2022-11-17T12:47:59.199Z,4.54
2022-11-17T12:58:51.756Z,4.60
2022-11-17T13:09:13.280Z,4.61
2022-11-17T13:19:37.584Z,4.63
2022-11-17T13:30:22.522Z,4.67
2022-11-17T13:40:45.710Z,4.68
2022-11-17T13:51:28.932Z,4.68
2022-11-17T14:02:16.133Z,4.78
2022-11-17T14:12:37.607Z,4.75
2022-11-17T14:23:16.540Z,4.73
2022-11-17T14:33:37.987Z,4.72
2022-11-17T14:43:59.480Z,4.72
2022-11-17T14:54:21.110Z,4.72
2022-11-17T15:04:50.669Z,4.73
2022-11-17T15:15:12.832Z,4.75
2022-11-17T15:25:34.341Z,4.75
2022-11-17T15:36:03.453Z,4.74
2022-11-17T15:46:25.030Z,4.71
2022-11-17T15:56:46.540Z,4.72
2022-11-17T16:07:08.166Z,4.78
2022-11-17T16:17:29.681Z,4.83
2022-11-17T16:27:51.163Z,4.87
2022-11-17T16:38:14.899Z,4.81
2022-11-17T16:48:36.349Z,4.81
2022-11-17T16:58:58.760Z,4.80
2022-11-17T17:09:24.903Z,4.79
2022-11-17T17:19:49.205Z,4.84
2022-11-17T17:30:11.354Z,4.84
2022-11-17T17:40:33.954Z,4.88
2022-11-17T17:51:07.944Z,4.91
2022-11-17T18:01:33.182Z,4.89
2022-11-17T18:11:54.769Z,4.93
2022-11-17T18:22:16.297Z,4.91
2022-11-17T18:32:37.754Z,4.94
2022-11-17T18:43:01.493Z,4.96
2022-11-17T18:53:22.945Z,4.98
2022-11-17T19:03:46.579Z,4.94
2022-11-17T19:14:08.068Z,4.92
2022-11-17T19:24:29.525Z,4.91
2022-11-17T19:34:51.851Z,4.93
2022-11-17T19:45:13.444Z,4.94
2022-11-17T19:55:35.030Z,4.91
2022-11-17T20:06:00.031Z,4.92
2022-11-17T20:16:26.466Z,4.92
2022-11-17T20:26:49.039Z,4.88
2022-11-17T20:37:10.496Z,4.90
2022-11-17T20:47:32.042Z,4.90
2022-11-17T20:57:53.523Z,4.87
2022-11-17T21:08:14.995Z,4.87
2022-11-17T21:18:38.526Z,4.89
2022-11-17T21:29:06.013Z,4.93
2022-11-17T21:39:28.078Z,4.97
2022-11-17T21:49:49.658Z,4.93
2022-11-17T22:00:11.659Z,4.92
2022-11-17T22:10:34.755Z,4.86
2022-11-17T22:20:56.439Z,4.83
2022-11-17T22:31:18.426Z,4.82
2022-11-17T22:41:39.802Z,4.79
2022-11-17T22:52:04.179Z,4.76
2022-11-17T23:02:25.718Z,4.74
2022-11-17T23:12:47.230Z,4.74
2022-11-17T23:23:08.743Z,4.72
2022-11-17T23:33:35.529Z,4.67
2022-11-17T23:43:57.007Z,4.67
2022-11-17T23:54:18.480Z,4.66
